Time;durP1;ratioP1;P1;durP2;ratioP2;P2;SDS_P1;SDS_P2;PMS_P1;PMS_P2;Temp;Humidity;BMP_temperature;BMP_pressure;BME280_temperature;BME280_humidity;BME280_pressure;Samples;Min_cycle;Max_cycle;Signal;HPM_P1;HPM_P2
2022/06/15 05:23:37;;;;;;;;;;;14.90;52.10;;;;;;5085021;28;19930;-71
2022/06/15 05:26:04;;;;;;;;;;;15.00;51.80;;;;;;5086631;28;19916;-70
2022/06/15 05:28:30;;;;;;;;;;;15.00;52.40;;;;;;5080400;28;19908;-70
2022/06/15 05:31:03;;;;;;;;;;;15.00;53.50;;;;;;5076385;28;19971;-68
2022/06/15 05:33:32;;;;;;;;;;;15.00;53.70;;;;;;5081455;28;20409;-67
2022/06/15 05:36:03;;;;;;;;;;;14.90;53.20;;;;;;5084103;28;20375;-67
2022/06/15 05:38:29;;;;;;;;;;;15.00;53.90;;;;;;5084495;28;19966;-67
2022/06/15 05:40:56;;;;;;;;;;;15.00;52.90;;;;;;5086051;28;19912;-66
2022/06/15 05:43:23;;;;;;;;;;;15.00;52.40;;;;;;5079234;28;19909;-67
2022/06/15 05:45:49;;;;;;;;;;;15.00;52.90;;;;;;5082793;28;19920;-69
2022/06/15 05:48:16;;;;;;;;;;;15.00;53.60;;;;;;5075135;28;19909;-69
2022/06/15 05:50:42;;;;;;;;;;;15.00;53.10;;;;;;5071324;28;19935;-69
2022/06/15 05:53:09;;;;;;;;;;;15.10;51.30;;;;;;5075638;28;19916;-70
2022/06/15 05:55:35;;;;;;;;;;;15.20;51.30;;;;;;5072553;28;19912;-70
2022/06/15 05:58:05;;;;;;;;;;;15.20;50.80;;;;;;5053197;28;20062;-70
2022/06/15 06:00:32;;;;;;;;;;;15.20;51.50;;;;;;5073186;28;19912;-69
2022/06/15 06:02:59;;;;;;;;;;;15.20;51.30;;;;;;5058753;28;19919;-69
2022/06/15 06:05:25;;;;;;;;;;;15.20;51.30;;;;;;5053930;28;20255;-70
2022/06/15 06:07:56;;;;;;;;;;;15.20;51.30;;;;;;5070281;28;20460;-70
2022/06/15 06:10:23;;;;;;;;;;;15.20;52.00;;;;;;5071149;28;19963;-70
2022/06/15 06:12:49;;;;;;;;;;;15.20;52.70;;;;;;5071566;28;19916;-70
2022/06/15 06:15:16;;;;;;;;;;;15.20;52.40;;;;;;5051952;28;19912;-70
2022/06/15 06:17:43;;;;;;;;;;;15.20;53.00;;;;;;5078679;28;19970;-70
2022/06/15 06:20:09;;;;;;;;;;;15.10;53.20;;;;;;5077111;28;20255;-70
2022/06/15 06:22:36;;;;;;;;;;;15.10;56.30;;;;;;5085392;28;19966;-70
2022/06/15 06:25:03;;;;;;;;;;;15.00;60.30;;;;;;5080454;28;19912;-71
2022/06/15 06:27:29;;;;;;;;;;;15.00;63.50;;;;;;5085117;28;20019;-70
2022/06/15 06:29:56;;;;;;;;;;;14.90;63.90;;;;;;5072296;28;19951;-70
2022/06/15 06:32:23;;;;;;;;;;;14.80;64.70;;;;;;5079107;28;19942;-70
2022/06/15 06:34:51;;;;;;;;;;;14.80;65.30;;;;;;5090203;28;19965;-70
2022/06/15 06:37:17;;;;;;;;;;;14.80;65.90;;;;;;5075198;28;20039;-70
2022/06/15 06:39:44;;;;;;;;;;;14.80;66.80;;;;;;5058111;28;20255;-70
2022/06/15 06:42:11;;;;;;;;;;;14.80;66.80;;;;;;5080970;28;19952;-70
2022/06/15 06:44:38;;;;;;;;;;;14.70;66.80;;;;;;5075012;28;19981;-70
2022/06/15 06:47:05;;;;;;;;;;;14.70;66.60;;;;;;5079516;28;20011;-70
2022/06/15 06:49:31;;;;;;;;;;;14.60;66.20;;;;;;5076051;28;19956;-70
2022/06/15 09:20:44;;;;;;;;;;;13.40;58.60;;;;;;5076766;28;21930;-71
2022/06/15 09:23:16;;;;;;;;;;;13.40;58.40;;;;;;5060227;28;20007;-70
2022/06/15 09:25:48;;;;;;;;;;;13.40;58.40;;;;;;5094117;28;20326;-70
2022/06/15 09:28:18;;;;;;;;;;;13.40;58.40;;;;;;5102151;28;19962;-71
2022/06/15 09:30:45;;;;;;;;;;;13.40;58.60;;;;;;5093534;28;19916;-70
2022/06/15 09:33:15;;;;;;;;;;;13.40;58.60;;;;;;5123228;27;19961;-71
2022/06/15 09:35:43;;;;;;;;;;;13.40;59.20;;;;;;5071268;28;19908;-71
2022/06/15 09:38:12;;;;;;;;;;;13.30;59.40;;;;;;5097486;28;19999;-71
2022/06/15 09:40:44;;;;;;;;;;;13.30;59.80;;;;;;5102297;28;19927;-70
2022/06/15 09:43:17;;;;;;;;;;;13.30;60.30;;;;;;5084078;28;19915;-71
2022/06/15 09:45:43;;;;;;;;;;;13.20;60.10;;;;;;5096440;28;19908;-71
2022/06/15 09:48:16;;;;;;;;;;;13.20;60.10;;;;;;5110762;27;19915;-71
2022/06/15 09:50:56;;;;;;;;;;;13.20;60.30;;;;;;5099358;27;19931;-71
2022/06/15 09:53:41;;;;;;;;;;;13.20;60.40;;;;;;5081447;28;20327;-70
2022/06/15 09:56:09;;;;;;;;;;;13.20;61.10;;;;;;5100809;28;19908;-71
2022/06/15 09:58:41;;;;;;;;;;;13.20;61.10;;;;;;5086462;28;19965;-71
2022/06/15 10:01:08;;;;;;;;;;;13.20;61.00;;;;;;5087092;27;20397;-71
2022/06/15 10:03:36;;;;;;;;;;;13.10;61.30;;;;;;5104014;28;19947;-72
2022/06/15 10:06:14;;;;;;;;;;;13.10;61.60;;;;;;5087166;28;20263;-71
2022/06/15 10:08:40;;;;;;;;;;;13.10;61.50;;;;;;5091327;28;19916;-71
2022/06/15 10:11:12;;;;;;;;;;;13.10;60.80;;;;;;5111132;27;19919;-71
2022/06/15 10:13:40;;;;;;;;;;;13.10;61.50;;;;;;5088710;28;20361;-71
2022/06/15 10:16:30;;;;;;;;;;;13.10;61.60;;;;;;5108484;28;19915;-71
2022/06/15 10:18:59;;;;;;;;;;;13.00;62.00;;;;;;5091235;28;19919;-70
2022/06/15 11:22:15;;;;;;;;;;;12.90;66.40;;;;;;4808512;26;19925;-70
2022/06/15 11:25:02;;;;;;;;;;;12.90;66.50;;;;;;5058248;28;19923;-70
2022/06/15 11:27:33;;;;;;;;;;;12.90;66.40;;;;;;5046397;28;19971;-70
2022/06/15 11:30:00;;;;;;;;;;;12.90;66.60;;;;;;5056010;28;19916;-69
2022/06/15 11:32:39;;;;;;;;;;;12.80;66.80;;;;;;5037415;28;19976;-70
2022/06/15 11:35:14;;;;;;;;;;;12.80;67.00;;;;;;5058350;28;19912;-70
2022/06/15 11:37:47;;;;;;;;;;;12.80;66.90;;;;;;5047286;28;19909;-70
2022/06/15 11:40:16;;;;;;;;;;;12.80;67.20;;;;;;5057965;28;19959;-71
2022/06/15 11:42:48;;;;;;;;;;;12.70;67.60;;;;;;5058684;28;19913;-70
2022/06/15 11:45:15;;;;;;;;;;;12.70;67.70;;;;;;5055129;28;19908;-70
2022/06/15 11:47:52;;;;;;;;;;;12.70;67.80;;;;;;5060542;28;20011;-70
2022/06/15 11:50:22;;;;;;;;;;;12.70;67.80;;;;;;5061034;28;20382;-70
2022/06/15 11:53:00;;;;;;;;;;;12.70;67.90;;;;;;5058493;28;19919;-69
2022/06/15 11:55:53;;;;;;;;;;;12.70;68.00;;;;;;5034084;28;20371;-70
2022/06/15 11:58:20;;;;;;;;;;;12.70;68.40;;;;;;5021902;28;19954;-70
2022/06/15 12:00:49;;;;;;;;;;;12.70;68.40;;;;;;5065868;28;19935;-71
2022/06/15 12:03:22;;;;;;;;;;;12.70;68.60;;;;;;5061261;28;19909;-70
2022/06/15 12:05:49;;;;;;;;;;;12.60;68.60;;;;;;5065510;28;20006;-70
2022/06/15 12:08:31;;;;;;;;;;;12.70;68.80;;;;;;5062825;28;19920;-70
2022/06/15 12:10:59;;;;;;;;;;;12.70;68.60;;;;;;5063083;28;19969;-70
2022/06/15 12:13:44;;;;;;;;;;;12.70;68.40;;;;;;5042479;28;19919;-70
2022/06/15 12:16:13;;;;;;;;;;;12.80;67.70;;;;;;5068622;28;19936;-70
2022/06/15 12:18:52;;;;;;;;;;;12.70;67.90;;;;;;5066271;28;19955;-70
2022/06/15 17:02:24;;;;;;;;;;;11.60;68.50;;;;;;4983716;28;21155;-69
2022/06/15 17:04:50;;;;;;;;;;;11.50;69.70;;;;;;4990812;28;19959;-70
2022/06/15 17:07:18;;;;;;;;;;;11.50;70.30;;;;;;4992964;28;19926;-69
2022/06/15 17:09:44;;;;;;;;;;;11.30;71.00;;;;;;4993358;28;19960;-69
2022/06/15 17:12:13;;;;;;;;;;;11.40;70.70;;;;;;4992852;28;20442;-69
2022/06/15 17:14:39;;;;;;;;;;;11.40;70.40;;;;;;4993020;28;19960;-69
2022/06/15 17:17:06;;;;;;;;;;;11.30;70.50;;;;;;4993368;28;19910;-69
2022/06/15 17:19:32;;;;;;;;;;;11.30;71.00;;;;;;4990324;28;19921;-69
2022/06/15 17:21:59;;;;;;;;;;;11.30;71.00;;;;;;4983745;28;19914;-69
2022/06/15 17:24:25;;;;;;;;;;;11.30;71.50;;;;;;4992149;28;19957;-69
2022/06/15 17:26:52;;;;;;;;;;;11.20;72.00;;;;;;4992440;28;19918;-70
2022/06/15 17:29:20;;;;;;;;;;;11.20;72.60;;;;;;5008458;28;19921;-69
2022/06/15 17:31:48;;;;;;;;;;;11.20;72.70;;;;;;4993426;28;19956;-69
2022/06/15 17:34:15;;;;;;;;;;;11.10;73.10;;;;;;4992940;28;19989;-70
2022/06/15 17:36:41;;;;;;;;;;;11.10;73.40;;;;;;4993364;28;20027;-70
2022/06/15 17:39:08;;;;;;;;;;;11.10;73.50;;;;;;4993080;28;19992;-70
2022/06/15 17:41:39;;;;;;;;;;;11.10;73.20;;;;;;5007924;28;20384;-70
2022/06/15 17:44:06;;;;;;;;;;;11.20;72.20;;;;;;5005277;28;20580;-70
2022/06/15 17:46:38;;;;;;;;;;;11.20;71.30;;;;;;5007673;28;19914;-70
2022/06/15 17:49:08;;;;;;;;;;;11.20;70.50;;;;;;5006900;28;20373;-70
2022/06/15 17:51:34;;;;;;;;;;;11.20;69.80;;;;;;4992432;28;19921;-70
2022/06/15 17:54:01;;;;;;;;;;;11.30;69.30;;;;;;4992347;28;19910;-70
2022/06/15 17:56:28;;;;;;;;;;;11.30;68.60;;;;;;4992086;28;19940;-70
2022/06/15 17:58:55;;;;;;;;;;;11.30;68.50;;;;;;4992750;28;19910;-70
2022/06/15 18:01:22;;;;;;;;;;;11.30;68.50;;;;;;5007636;28;19925;-70
2022/06/15 18:03:50;;;;;;;;;;;11.30;68.60;;;;;;4992516;28;19922;-70
2022/06/15 18:06:17;;;;;;;;;;;11.30;68.30;;;;;;4992167;28;19918;-70
2022/06/15 18:08:43;;;;;;;;;;;11.30;68.60;;;;;;4992511;28;19929;-70
2022/06/15 18:11:10;;;;;;;;;;;11.20;68.80;;;;;;4992322;28;19918;-70
2022/06/15 18:13:37;;;;;;;;;;;11.20;69.10;;;;;;5006211;28;20016;-70
2022/06/15 18:16:04;;;;;;;;;;;11.20;69.30;;;;;;5004770;28;19969;-70
2022/06/15 18:18:30;;;;;;;;;;;11.10;70.10;;;;;;4992764;28;20028;-70
2022/06/15 18:20:57;;;;;;;;;;;11.00;71.30;;;;;;4991930;28;19938;-70
2022/06/15 18:23:24;;;;;;;;;;;10.90;71.60;;;;;;5007104;28;19917;-70
2022/06/15 18:25:50;;;;;;;;;;;10.90;72.00;;;;;;4993021;28;19909;-70
2022/06/15 18:28:18;;;;;;;;;;;10.80;72.10;;;;;;4992714;28;20303;-70
2022/06/15 18:30:45;;;;;;;;;;;10.80;71.90;;;;;;4991993;28;19914;-70
2022/06/15 18:33:11;;;;;;;;;;;10.80;71.90;;;;;;4992144;28;20248;-70
2022/06/15 18:35:38;;;;;;;;;;;10.80;71.70;;;;;;4990470;28;20384;-70
2022/06/15 18:38:05;;;;;;;;;;;10.70;71.90;;;;;;5006755;28;19910;-70
2022/06/15 18:40:37;;;;;;;;;;;10.70;72.40;;;;;;5006465;28;19921;-70
2022/06/15 18:47:34;;;;;;;;;;;10.70;73.30;;;;;;4992207;28;19925;-70
2022/06/15 18:48:36;;;;;;;;;;;10.60;74.40;;;;;;4992775;28;19941;-70
2022/06/15 18:51:02;;;;;;;;;;;10.60;74.50;;;;;;4992197;28;19937;-70
2022/06/15 18:53:29;;;;;;;;;;;10.60;74.10;;;;;;4991819;28;19914;-70
2022/06/15 18:55:55;;;;;;;;;;;10.60;73.70;;;;;;4992349;28;20315;-71
2022/06/15 18:58:23;;;;;;;;;;;10.60;73.40;;;;;;5007233;28;20025;-69
2022/06/15 19:12:20;;;;;;;;;;;10.40;75.70;;;;;;5026785;28;20973;-68
2022/06/15 19:14:46;;;;;;;;;;;10.30;76.10;;;;;;5034562;28;19928;-69
2022/06/15 19:17:13;;;;;;;;;;;10.20;75.00;;;;;;5034463;28;20069;-69
2022/06/15 19:19:39;;;;;;;;;;;10.20;74.20;;;;;;5043347;28;19908;-69
2022/06/15 19:22:06;;;;;;;;;;;10.20;75.10;;;;;;5040235;28;19916;-68
2022/06/15 19:24:46;;;;;;;;;;;10.20;75.10;;;;;;5040866;28;19913;-69
2022/06/15 19:27:17;;;;;;;;;;;10.30;75.00;;;;;;5040815;28;19917;-68
2022/06/15 19:29:46;;;;;;;;;;;10.40;74.40;;;;;;5045943;28;19916;-68
2022/06/15 19:32:12;;;;;;;;;;;10.50;74.20;;;;;;5017709;28;19987;-69
2022/06/15 19:34:39;;;;;;;;;;;10.60;74.10;;;;;;5028261;28;19969;-69
2022/06/15 19:37:06;;;;;;;;;;;10.70;73.30;;;;;;5034734;28;20008;-69
2022/06/15 19:39:32;;;;;;;;;;;10.60;74.30;;;;;;5033429;28;19940;-69
2022/06/15 19:41:59;;;;;;;;;;;10.60;73.90;;;;;;5034091;28;20279;-68
2022/06/15 19:44:25;;;;;;;;;;;10.70;73.40;;;;;;5014115;28;19921;-69
2022/06/15 19:46:52;;;;;;;;;;;10.70;72.80;;;;;;5026925;28;19917;-69
2022/06/15 19:49:18;;;;;;;;;;;10.70;72.40;;;;;;5034272;28;20283;-69
2022/06/15 19:51:45;;;;;;;;;;;10.70;71.80;;;;;;5034300;28;19909;-69
2022/06/15 19:54:13;;;;;;;;;;;10.80;71.00;;;;;;5016225;28;20264;-69
2022/06/15 19:56:39;;;;;;;;;;;10.80;69.20;;;;;;5027205;28;19948;-69
2022/06/15 19:59:06;;;;;;;;;;;10.90;68.50;;;;;;5034404;28;20066;-70
2022/06/15 20:01:35;;;;;;;;;;;11.00;68.50;;;;;;5033621;28;20256;-68
2022/06/15 20:04:02;;;;;;;;;;;11.00;68.10;;;;;;5034009;28;19916;-69
2022/06/15 20:06:28;;;;;;;;;;;11.00;67.90;;;;;;5033992;28;20287;-69
2022/06/15 20:08:55;;;;;;;;;;;11.00;69.30;;;;;;5034188;28;20325;-69
2022/06/15 20:11:21;;;;;;;;;;;11.00;70.10;;;;;;5033892;28;19917;-69
